Willhite, Louisiana
Current Conditions -  °F | °C
As of 9:15 PM on Thursday 27 Nov 2014 (Local Time) from KRSN Reporting Station
Clear Clear  
Wind Chill: 35°   Ceiling: Unl
Heat Index: 35°   Visibility: 10mi
Dew Point: 35°   Wind: 0mph
Humidity: 100%   Direction: NA
Pressure: 30.5"   Gusts: NA
Location:  32.6533°N, 92.3683°W
Report Text: KRSN 280315Z AUTO 00000KT 10SM CLR 02/02 A3050 RMK AO2 T00150015
Loading
Personal Weather Stations






























Interactive Weather Map New forecast layout! Learn more

10-Day Weather Forecast

Advertisements
Track Severe Weather on mobile